Time;durP1;ratioP1;P1;durP2;ratioP2;P2;SDS_P1;SDS_P2;PMS_P1;PMS_P2;Temp;Humidity;BMP_temperature;BMP_pressure;BME280_temperature;BME280_humidity;BME280_pressure;Samples;Min_cycle;Max_cycle;Signal;HPM_P1;HPM_P2
2023/09/23 00:00:12;;;;;;;2.42;2.22;;;14.00;99.90;;;;;;5034075;28;20402;-81
2023/09/23 00:02:40;;;;;;;2.70;2.10;;;13.80;99.90;;;;;;5035050;28;20505;-81
2023/09/23 00:05:09;;;;;;;3.30;3.05;;;13.80;99.90;;;;;;5034979;28;20056;-81
2023/09/23 00:07:36;;;;;;;1.98;1.88;;;13.80;99.90;;;;;;5035431;28;20132;-82
2023/09/23 00:10:05;;;;;;;3.00;2.20;;;13.80;99.90;;;;;;5017022;28;20184;-80
2023/09/23 00:12:31;;;;;;;2.00;1.90;;;13.80;99.90;;;;;;5034245;28;20060;-81
2023/09/23 00:14:57;;;;;;;2.05;1.83;;;13.80;99.90;;;;;;5035321;28;20038;-81
2023/09/23 00:17:23;;;;;;;3.25;2.20;;;13.80;99.90;;;;;;5034585;28;20045;-82
2023/09/23 00:19:48;;;;;;;3.35;2.20;;;13.80;99.90;;;;;;5035157;28;20055;-82
2023/09/23 00:22:14;;;;;;;3.35;2.72;;;13.70;99.90;;;;;;5033818;28;20037;-82
2023/09/23 00:24:40;;;;;;;3.75;2.42;;;13.70;99.90;;;;;;5034639;28;20045;-81
2023/09/23 00:27:07;;;;;;;2.85;2.50;;;13.70;99.90;;;;;;5034324;28;20060;-80
2023/09/23 00:29:34;;;;;;;2.90;2.03;;;13.70;99.90;;;;;;5034724;28;20478;-80
2023/09/23 00:32:00;;;;;;;2.30;2.08;;;13.60;99.90;;;;;;5034837;28;20129;-80
2023/09/23 00:34:25;;;;;;;2.63;1.60;;;13.60;99.90;;;;;;5034798;28;20466;-80
2023/09/23 00:36:52;;;;;;;2.25;1.90;;;13.60;99.90;;;;;;5034560;28;20048;-80
2023/09/23 00:39:18;;;;;;;2.78;2.22;;;13.50;99.90;;;;;;5034353;28;20050;-80
2023/09/23 00:41:44;;;;;;;3.22;1.90;;;13.50;99.90;;;;;;5034389;28;20091;-80
2023/09/23 00:44:10;;;;;;;2.55;2.15;;;13.50;99.90;;;;;;5034336;28;20088;-80
2023/09/23 00:46:37;;;;;;;2.25;1.60;;;13.40;99.90;;;;;;5016781;28;20041;-79
2023/09/23 00:49:07;;;;;;;2.17;1.50;;;13.40;99.90;;;;;;5033039;28;20083;-79
2023/09/23 00:51:34;;;;;;;2.30;1.58;;;13.30;99.90;;;;;;5034612;28;20056;-79
2023/09/23 00:54:01;;;;;;;2.13;1.60;;;13.30;99.90;;;;;;5034148;28;20041;-79
2023/09/23 00:56:29;;;;;;;1.55;1.10;;;13.30;99.90;;;;;;5034643;28;20045;-79
2023/09/23 00:58:54;;;;;;;1.65;1.40;;;13.30;99.90;;;;;;5034477;28;20049;-80
2023/09/23 01:01:21;;;;;;;1.77;1.40;;;13.20;99.90;;;;;;5034136;28;20052;-80
2023/09/23 01:03:47;;;;;;;1.48;1.10;;;13.20;99.90;;;;;;5033770;28;20042;-79
2023/09/23 01:06:16;;;;;;;1.98;1.05;;;13.20;99.90;;;;;;5033900;28;20049;-79
2023/09/23 01:08:44;;;;;;;4.20;1.35;;;13.20;99.90;;;;;;5034412;28;20049;-79
2023/09/23 01:11:11;;;;;;;1.45;1.35;;;13.10;99.90;;;;;;5034459;28;20489;-80
2023/09/23 01:13:37;;;;;;;1.42;1.20;;;13.10;99.90;;;;;;5034289;28;20053;-80
2023/09/23 01:16:09;;;;;;;1.48;1.38;;;13.10;99.90;;;;;;5032837;28;20159;-79
2023/09/23 01:18:35;;;;;;;0.90;0.90;;;13.10;99.90;;;;;;5034142;28;20133;-79
2023/09/23 01:21:02;;;;;;;0.95;0.95;;;13.00;99.90;;;;;;5032756;28;20195;-79
2023/09/23 01:23:28;;;;;;;1.45;1.20;;;13.00;99.90;;;;;;5033532;28;20120;-79
2023/09/23 01:25:53;;;;;;;1.33;1.20;;;13.00;99.90;;;;;;5033657;28;20081;-80
2023/09/23 01:28:19;;;;;;;2.50;1.23;;;13.00;99.90;;;;;;5032869;28;20049;-80
2023/09/23 01:30:45;;;;;;;1.27;1.05;;;12.90;99.90;;;;;;5033071;28;20065;-80
2023/09/23 01:33:14;;;;;;;1.15;1.05;;;12.90;99.90;;;;;;5033171;28;20065;-80
2023/09/23 01:35:40;;;;;;;1.75;1.42;;;13.00;99.90;;;;;;5033509;28;20045;-80
2023/09/23 01:38:07;;;;;;;2.35;1.10;;;12.90;99.90;;;;;;5033492;28;20137;-80
2023/09/23 01:40:39;;;;;;;1.13;1.00;;;12.90;99.90;;;;;;5033132;28;20054;-80
2023/09/23 01:43:09;;;;;;;2.78;1.10;;;13.00;99.90;;;;;;5031860;28;20084;-80
2023/09/23 01:45:35;;;;;;;1.45;1.27;;;12.90;99.90;;;;;;5033188;28;20057;-80
2023/09/23 01:48:01;;;;;;;2.08;1.00;;;12.90;99.90;;;;;;5033190;28;20049;-80
2023/09/23 01:50:27;;;;;;;1.17;1.08;;;12.90;99.90;;;;;;5031691;28;20127;-80
2023/09/23 01:52:59;;;;;;;1.95;1.10;;;12.90;99.90;;;;;;5033206;28;20049;-80
2023/09/23 01:55:25;;;;;;;1.90;1.30;;;12.80;99.90;;;;;;5033056;28;20045;-80
2023/09/23 01:57:52;;;;;;;1.40;1.08;;;12.80;99.90;;;;;;5033033;28;20049;-80
2023/09/23 02:00:18;;;;;;;1.83;1.15;;;12.80;99.90;;;;;;5033106;28;20041;-80
2023/09/23 02:02:44;;;;;;;5.05;1.20;;;12.80;99.90;;;;;;5032322;28;20506;-80
2023/09/23 02:05:10;;;;;;;1.60;0.95;;;12.90;99.90;;;;;;5015360;28;20057;-80
2023/09/23 02:07:36;;;;;;;1.40;1.10;;;12.90;99.90;;;;;;5031724;28;20585;-79
2023/09/23 02:10:02;;;;;;;1.92;1.20;;;12.90;99.90;;;;;;5033190;28;20077;-79
2023/09/23 02:12:28;;;;;;;1.48;1.05;;;12.80;99.90;;;;;;5032437;28;20515;-80
2023/09/23 02:14:53;;;;;;;0.95;0.88;;;12.80;99.90;;;;;;5032722;28;20045;-80
2023/09/23 02:17:22;;;;;;;2.17;1.05;;;12.80;99.90;;;;;;5033116;28;20173;-80
2023/09/23 02:19:48;;;;;;;1.10;1.00;;;12.80;99.90;;;;;;5032661;28;20056;-79
2023/09/23 02:22:15;;;;;;;1.52;1.40;;;12.80;99.90;;;;;;5032510;28;20042;-80
2023/09/23 02:24:41;;;;;;;2.38;1.30;;;12.80;99.90;;;;;;5031165;28;20049;-80
2023/09/23 02:27:06;;;;;;;4.25;1.83;;;12.80;99.90;;;;;;5032526;28;20099;-80
2023/09/23 02:29:33;;;;;;;1.42;1.30;;;12.80;99.90;;;;;;5031931;28;20053;-80
2023/09/23 02:32:00;;;;;;;2.85;1.50;;;12.80;99.90;;;;;;5032311;28;20049;-80
2023/09/23 02:34:27;;;;;;;2.00;1.75;;;12.90;99.90;;;;;;5032972;28;20046;-80
2023/09/23 02:36:52;;;;;;;2.53;1.83;;;12.80;99.90;;;;;;5033011;28;20053;-80
2023/09/23 02:39:21;;;;;;;2.63;2.05;;;12.80;99.90;;;;;;5032573;28;20146;-80
2023/09/23 02:41:48;;;;;;;2.40;2.20;;;12.80;99.90;;;;;;5032335;28;20053;-80
2023/09/23 02:44:18;;;;;;;2.35;2.15;;;12.80;99.90;;;;;;5031428;28;20073;-80
2023/09/23 02:46:47;;;;;;;4.35;2.70;;;12.80;99.90;;;;;;5031027;28;20081;-80
2023/09/23 02:49:14;;;;;;;3.08;2.78;;;12.80;99.90;;;;;;5031665;28;20395;-80
2023/09/23 02:51:42;;;;;;;3.80;3.28;;;12.80;99.90;;;;;;5032347;28;20079;-80
2023/09/23 02:54:09;;;;;;;3.67;2.90;;;12.80;99.90;;;;;;5031227;28;20482;-80
2023/09/23 02:56:35;;;;;;;3.05;2.75;;;12.70;99.90;;;;;;5032494;28;20057;-79
2023/09/23 02:59:13;;;;;;;3.80;3.28;;;12.70;99.90;;;;;;5032371;28;20084;-79
2023/09/23 03:01:45;;;;;;;3.10;2.85;;;12.60;99.90;;;;;;5032205;28;20120;-80
2023/09/23 03:04:16;;;;;;;3.58;3.10;;;12.50;99.90;;;;;;5032952;28;20192;-80
2023/09/23 03:06:50;;;;;;;5.10;4.22;;;12.50;99.90;;;;;;5032339;28;20038;-80
2023/09/23 03:09:21;;;;;;;4.53;3.95;;;12.50;99.90;;;;;;5032733;28;20099;-80
2023/09/23 03:11:55;;;;;;;3.58;3.22;;;12.50;99.90;;;;;;5032316;28;20124;-79
2023/09/23 03:14:28;;;;;;;3.70;3.40;;;12.40;99.90;;;;;;5031425;28;20053;-80
2023/09/23 03:16:57;;;;;;;6.72;3.55;;;12.40;99.90;;;;;;5032472;28;20486;-79
2023/09/23 03:19:26;;;;;;;6.03;3.67;;;12.30;99.90;;;;;;5032316;28;20064;-79
2023/09/23 03:21:56;;;;;;;4.95;4.22;;;12.30;99.90;;;;;;5014369;28;20045;-79
2023/09/23 03:24:25;;;;;;;4.18;3.83;;;12.20;99.90;;;;;;5032013;28;20054;-80
2023/09/23 03:26:53;;;;;;;5.20;4.10;;;12.20;99.90;;;;;;5032073;28;20081;-80
2023/09/23 03:29:20;;;;;;;5.70;4.82;;;12.20;99.90;;;;;;5032447;28;20045;-79
2023/09/23 03:31:46;;;;;;;4.93;4.10;;;12.10;99.90;;;;;;5031754;28;20062;-79
2023/09/23 03:34:15;;;;;;;5.05;4.18;;;12.10;99.90;;;;;;5032370;28;20091;-80
2023/09/23 03:36:46;;;;;;;3.60;3.30;;;12.10;99.90;;;;;;5031992;28;20516;-79
2023/09/23 03:39:12;;;;;;;4.63;4.22;;;12.00;99.90;;;;;;5031733;28;20092;-80
2023/09/23 03:41:38;;;;;;;4.88;4.03;;;12.00;99.90;;;;;;5031764;28;20084;-79
2023/09/23 03:44:09;;;;;;;6.47;4.60;;;11.90;99.90;;;;;;5032246;28;20033;-80
2023/09/23 03:46:36;;;;;;;7.13;5.13;;;12.00;99.90;;;;;;5035066;28;20470;-80
2023/09/23 03:49:02;;;;;;;5.30;4.80;;;11.90;99.90;;;;;;5035164;28;20502;-79
2023/09/23 03:51:28;;;;;;;4.97;4.47;;;11.90;99.90;;;;;;5035153;28;20055;-80
2023/09/23 03:53:53;;;;;;;5.35;4.85;;;11.80;99.90;;;;;;5034001;28;20049;-80
2023/09/23 03:56:24;;;;;;;6.40;5.75;;;11.80;99.90;;;;;;5034930;28;20045;-80
2023/09/23 03:58:56;;;;;;;5.65;5.05;;;11.80;99.90;;;;;;5033994;28;20057;-80
2023/09/23 04:01:24;;;;;;;8.15;5.40;;;11.80;99.90;;;;;;5034855;28;20497;-80
2023/09/23 04:03:52;;;;;;;6.18;5.53;;;11.70;99.90;;;;;;5034879;28;20052;-80
2023/09/23 04:06:19;;;;;;;6.45;5.18;;;11.70;99.90;;;;;;5033827;28;20046;-80
2023/09/23 04:08:47;;;;;;;7.20;5.80;;;11.70;99.90;;;;;;5034305;28;20092;-79
2023/09/23 04:11:15;;;;;;;6.45;5.85;;;11.60;99.90;;;;;;5033694;28;20060;-80
2023/09/23 04:13:44;;;;;;;6.22;5.63;;;11.60;99.90;;;;;;5017883;28;20053;-81
2023/09/23 04:16:11;;;;;;;8.35;6.10;;;11.60;99.90;;;;;;5034690;28;20124;-80
2023/09/23 04:18:37;;;;;;;7.45;6.75;;;11.50;99.90;;;;;;5033336;28;20049;-80
2023/09/23 04:21:04;;;;;;;6.70;4.85;;;11.50;99.90;;;;;;5034815;28;20053;-80
2023/09/23 04:23:30;;;;;;;6.93;5.63;;;11.50;99.90;;;;;;5016563;28;20033;-80
2023/09/23 04:25:56;;;;;;;6.57;5.95;;;11.50;99.90;;;;;;5033628;28;20056;-80
2023/09/23 04:28:22;;;;;;;7.10;6.35;;;11.50;99.90;;;;;;5034425;28;20049;-80
2023/09/23 04:30:53;;;;;;;8.52;7.63;;;11.40;99.90;;;;;;5033437;28;20053;-80
2023/09/23 04:33:20;;;;;;;7.38;6.57;;;11.40;99.90;;;;;;5034488;28;20092;-80
2023/09/23 04:35:47;;;;;;;8.05;7.25;;;11.30;99.90;;;;;;5034326;28;20084;-80
2023/09/23 04:38:14;;;;;;;8.68;7.60;;;11.30;99.90;;;;;;5034334;28;20061;-80
2023/09/23 04:40:40;;;;;;;10.20;8.55;;;11.30;99.90;;;;;;5034612;28;20077;-80
2023/09/23 04:43:06;;;;;;;9.50;6.90;;;11.30;99.90;;;;;;5034315;28;20057;-80
2023/09/23 04:45:32;;;;;;;9.48;7.85;;;11.30;99.90;;;;;;5034143;28;20045;-80
2023/09/23 04:48:00;;;;;;;10.93;8.43;;;11.20;99.90;;;;;;5034184;28;20046;-80
2023/09/23 04:50:28;;;;;;;9.98;8.07;;;11.20;99.90;;;;;;5034056;28;20072;-81
2023/09/23 04:52:53;;;;;;;11.05;7.65;;;11.10;99.90;;;;;;5034026;28;20052;-80
2023/09/23 04:55:20;;;;;;;8.35;7.03;;;11.20;99.90;;;;;;5034165;28;20081;-80
2023/09/23 04:57:46;;;;;;;11.65;8.48;;;11.10;99.90;;;;;;5033972;28;20050;-80
2023/09/23 05:00:19;;;;;;;9.70;8.10;;;11.20;99.90;;;;;;5033944;28;20048;-80
2023/09/23 05:02:48;;;;;;;9.65;8.55;;;11.20;99.90;;;;;;5033296;28;20049;-80
2023/09/23 05:05:14;;;;;;;9.75;8.75;;;11.30;99.90;;;;;;5017040;28;20096;-80
2023/09/23 05:07:39;;;;;;;9.10;8.20;;;11.30;99.90;;;;;;5033788;28;20045;-81
2023/09/23 05:10:06;;;;;;;8.25;7.20;;;11.30;99.90;;;;;;5033701;28;20110;-80
2023/09/23 05:12:32;;;;;;;10.23;9.18;;;11.30;99.90;;;;;;5034256;28;20049;-80
2023/09/23 05:14:58;;;;;;;10.00;8.98;;;11.30;99.90;;;;;;5033659;28;20386;-81
2023/09/23 05:17:27;;;;;;;9.55;8.55;;;11.30;99.90;;;;;;5033679;28;20084;-80
2023/09/23 05:19:53;;;;;;;10.85;9.55;;;11.30;99.90;;;;;;5032152;28;20053;-80
2023/09/23 05:22:19;;;;;;;10.23;9.20;;;11.40;99.90;;;;;;5033481;28;20042;-81
2023/09/23 05:24:48;;;;;;;10.40;8.40;;;11.40;99.90;;;;;;5032183;28;20045;-80
2023/09/23 05:27:14;;;;;;;9.27;8.40;;;11.40;99.90;;;;;;5033319;28;20045;-81
2023/09/23 05:29:44;;;;;;;9.20;8.13;;;11.40;99.90;;;;;;5032965;28;20042;-80
2023/09/23 05:32:10;;;;;;;8.82;8.02;;;11.50;99.90;;;;;;5033439;28;20089;-80
2023/09/23 05:34:39;;;;;;;11.75;9.15;;;11.40;99.90;;;;;;5033321;28;20041;-80
2023/09/23 05:37:06;;;;;;;9.60;8.60;;;11.40;99.90;;;;;;5033795;28;20046;-81
2023/09/23 05:39:34;;;;;;;10.52;8.77;;;11.40;99.90;;;;;;5033197;28;20458;-80
2023/09/23 05:42:02;;;;;;;10.75;9.15;;;10.70;99.90;;;;;;5032320;28;20041;-80
2023/09/23 05:44:27;;;;;;;9.40;8.15;;;11.50;99.90;;;;;;5032441;28;20050;-80
2023/09/23 05:46:53;;;;;;;10.82;9.73;;;11.50;99.90;;;;;;5033118;28;20087;-81
2023/09/23 05:49:19;;;;;;;8.73;7.30;;;11.40;99.90;;;;;;5033475;28;20095;-80
2023/09/23 05:51:45;;;;;;;9.90;8.65;;;11.50;99.90;;;;;;5031787;28;20091;-81
2023/09/23 05:54:11;;;;;;;9.63;8.63;;;11.50;99.90;;;;;;5033473;28;20052;-80
2023/09/23 05:56:38;;;;;;;11.18;9.43;;;11.40;99.90;;;;;;5033084;28;20057;-81
2023/09/23 05:59:05;;;;;;;13.18;9.77;;;11.40;99.90;;;;;;5033441;28;20051;-80
2023/09/23 06:01:32;;;;;;;13.35;9.63;;;11.40;99.90;;;;;;5033508;28;20083;-80
2023/09/23 06:03:58;;;;;;;10.77;9.68;;;11.40;99.90;;;;;;5032943;28;20065;-80
2023/09/23 06:06:24;;;;;;;13.85;10.30;;;11.40;99.90;;;;;;5032904;28;20053;-80
2023/09/23 06:08:50;;;;;;;11.38;9.75;;;11.40;99.90;;;;;;5032631;28;20045;-80
2023/09/23 06:11:17;;;;;;;10.27;9.15;;;11.40;99.90;;;;;;5033050;28;20050;-80
2023/09/23 06:13:42;;;;;;;14.60;12.50;;;11.40;99.90;;;;;;5032866;28;20045;-80
2023/09/23 06:16:08;;;;;;;14.95;12.43;;;11.40;99.90;;;;;;5033108;28;20049;-80
2023/09/23 06:18:34;;;;;;;16.50;13.88;;;11.40;99.90;;;;;;5033094;28;20052;-80
2023/09/23 06:21:06;;;;;;;15.63;12.88;;;11.40;99.90;;;;;;5032297;28;20458;-80
2023/09/23 06:23:32;;;;;;;18.75;14.95;;;11.40;99.90;;;;;;5031833;28;20395;-81
2023/09/23 06:26:01;;;;;;;17.95;15.65;;;11.50;99.90;;;;;;5032582;28;20041;-80
2023/09/23 06:28:27;;;;;;;19.10;16.38;;;11.60;99.90;;;;;;5032839;28;20056;-81
2023/09/23 06:30:53;;;;;;;19.17;15.80;;;11.60;99.90;;;;;;5032253;28;20061;-81
2023/09/23 06:33:19;;;;;;;24.40;18.73;;;11.60;99.90;;;;;;5031642;28;20087;-80
2023/09/23 06:35:45;;;;;;;21.55;17.52;;;11.70;99.90;;;;;;5032882;28;20061;-80
2023/09/23 06:38:12;;;;;;;22.73;18.80;;;11.70;99.90;;;;;;5032975;28;20501;-80
2023/09/23 06:40:38;;;;;;;22.73;19.13;;;11.90;99.90;;;;;;5032459;28;20184;-80
2023/09/23 06:43:04;;;;;;;22.88;19.17;;;11.90;99.90;;;;;;5032425;28;20060;-81
2023/09/23 06:45:30;;;;;;;23.98;19.60;;;12.00;99.90;;;;;;5032905;28;20053;-80
2023/09/23 06:47:55;;;;;;;23.73;19.98;;;12.10;99.90;;;;;;5032451;28;20045;-79
2023/09/23 06:50:21;;;;;;;24.90;17.70;;;12.20;99.90;;;;;;5032353;28;20049;-80
2023/09/23 06:52:47;;;;;;;24.02;18.50;;;12.30;99.90;;;;;;5032264;28;20045;-79
2023/09/23 06:55:12;;;;;;;20.95;17.13;;;12.40;99.90;;;;;;5032349;28;20092;-80
2023/09/23 06:57:38;;;;;;;19.77;16.33;;;12.40;99.90;;;;;;5032912;28;20041;-80
2023/09/23 07:00:06;;;;;;;22.83;18.33;;;12.50;99.90;;;;;;5032691;28;20053;-79
2023/09/23 07:02:33;;;;;;;21.42;19.02;;;12.50;99.90;;;;;;5032095;28;20482;-80
2023/09/23 07:04:58;;;;;;;24.42;18.65;;;12.70;99.90;;;;;;5032329;28;20041;-81
2023/09/23 07:07:24;;;;;;;20.63;17.67;;;12.80;99.90;;;;;;5032341;28;20136;-80
2023/09/23 07:09:50;;;;;;;24.33;17.90;;;12.90;99.90;;;;;;5032663;28;20080;-81
2023/09/23 07:12:15;;;;;;;24.25;17.90;;;13.00;99.90;;;;;;5032063;28;20041;-80
2023/09/23 07:14:41;;;;;;;21.92;17.35;;;13.20;99.90;;;;;;5032564;28;20091;-82
2023/09/23 07:17:07;;;;;;;21.70;16.77;;;13.20;99.90;;;;;;5032069;28;20085;-81
2023/09/23 07:19:33;;;;;;;20.33;16.27;;;13.30;99.90;;;;;;5035264;28;20049;-78
2023/09/23 07:22:00;;;;;;;21.38;17.88;;;13.30;99.90;;;;;;5035865;28;20477;-80
2023/09/23 07:24:29;;;;;;;22.48;17.83;;;13.30;99.90;;;;;;5035319;28;20386;-81
2023/09/23 07:26:56;;;;;;;19.35;15.82;;;13.30;99.90;;;;;;5035877;28;20084;-80
2023/09/23 07:29:22;;;;;;;20.58;17.55;;;13.30;99.90;;;;;;5036074;28;20049;-80
2023/09/23 07:31:48;;;;;;;20.42;17.67;;;13.30;99.90;;;;;;5035154;28;20062;-82
2023/09/23 07:34:14;;;;;;;22.23;18.10;;;13.30;99.90;;;;;;5034335;28;20053;-80
2023/09/23 07:36:40;;;;;;;19.55;15.60;;;12.40;99.90;;;;;;5035699;28;20052;-81
2023/09/23 07:39:05;;;;;;;20.80;17.23;;;13.40;99.90;;;;;;5034993;28;20084;-83
2023/09/23 07:41:31;;;;;;;18.25;15.57;;;13.40;99.90;;;;;;5035758;28;20479;-80
2023/09/23 07:43:57;;;;;;;21.52;16.45;;;13.50;99.90;;;;;;5034408;28;20037;-81
2023/09/23 07:46:23;;;;;;;22.27;18.05;;;13.50;99.90;;;;;;5035870;28;20053;-80
2023/09/23 07:48:48;;;;;;;22.08;15.30;;;13.70;99.90;;;;;;5017971;28;20056;-82
2023/09/23 07:51:14;;;;;;;19.15;15.45;;;14.20;99.90;;;;;;5035522;28;20418;-80
2023/09/23 07:53:40;;;;;;;20.60;15.13;;;14.70;99.90;;;;;;5035436;28;20042;-80
2023/09/23 07:56:05;;;;;;;16.92;14.38;;;15.70;99.90;;;;;;5034328;28;20049;-81
2023/09/23 07:58:31;;;;;;;16.15;13.77;;;16.40;99.90;;;;;;5034179;28;20096;-80
2023/09/23 08:00:57;;;;;;;15.70;13.95;;;16.70;99.90;;;;;;5033932;28;20045;-81
2023/09/23 08:03:26;;;;;;;15.30;13.20;;;17.40;99.90;;;;;;5035067;28;20045;-82
2023/09/23 08:05:53;;;;;;;16.27;13.02;;;18.00;99.90;;;;;;5035162;28;20088;-80
2023/09/23 08:08:19;;;;;;;17.88;12.98;;;17.80;99.90;;;;;;5034098;28;20054;-81
2023/09/23 08:10:45;;;;;;;14.48;12.27;;;17.70;99.90;;;;;;5035032;28;20119;-80
2023/09/23 08:13:11;;;;;;;14.68;11.32;;;17.40;99.90;;;;;;5034150;28;20045;-82
2023/09/23 08:15:36;;;;;;;13.68;11.57;;;17.20;99.90;;;;;;5034870;28;20120;-81
2023/09/23 08:18:02;;;;;;;14.18;11.98;;;16.60;99.90;;;;;;5034696;28;20045;-80
2023/09/23 08:20:29;;;;;;;12.27;10.98;;;16.30;99.90;;;;;;5035319;28;20045;-82
2023/09/23 08:22:55;;;;;;;12.38;10.85;;;16.30;99.90;;;;;;5034507;28;20451;-78
2023/09/23 08:25:20;;;;;;;12.38;11.07;;;16.40;99.90;;;;;;5034891;28;20049;-78
2023/09/23 08:27:46;;;;;;;13.32;11.93;;;16.70;99.90;;;;;;5034799;28;20053;-81
2023/09/23 08:30:15;;;;;;;13.10;11.10;;;17.10;99.90;;;;;;5033911;28;20127;-81
2023/09/23 08:32:40;;;;;;;11.93;9.75;;;17.80;99.90;;;;;;5034873;28;20617;-81
2023/09/23 08:35:07;;;;;;;11.27;9.43;;;18.90;99.90;;;;;;5034737;28;20065;-81
2023/09/23 08:37:33;;;;;;;11.25;9.57;;;19.80;99.90;;;;;;5034468;28;20095;-81
2023/09/23 08:39:59;;;;;;;14.52;8.85;;;20.40;99.90;;;;;;5033893;28;20409;-81
2023/09/23 08:42:27;;;;;;;12.32;10.02;;;20.80;99.90;;;;;;5034118;28;20045;-81
2023/09/23 08:44:53;;;;;;;11.07;8.80;;;21.30;99.90;;;;;;5034145;28;20133;-81
2023/09/23 08:47:20;;;;;;;10.27;8.57;;;21.30;99.90;;;;;;5033131;28;20128;-81
2023/09/23 08:49:49;;;;;;;9.82;8.80;;;20.40;99.90;;;;;;5034229;28;20048;-83
2023/09/23 08:52:18;;;;;;;8.85;7.95;;;19.60;99.90;;;;;;5034129;28;20188;-77
2023/09/23 08:54:47;;;;;;;8.80;7.90;;;18.70;99.90;;;;;;5034133;28;20046;-77
2023/09/23 08:57:16;;;;;;;10.35;8.38;;;18.10;99.90;;;;;;5033691;28;20049;-77
2023/09/23 08:59:42;;;;;;;9.57;7.68;;;17.80;99.90;;;;;;5032835;28;20052;-76
2023/09/23 09:02:08;;;;;;;10.73;7.45;;;17.50;99.90;;;;;;5034161;28;20037;-77
2023/09/23 09:04:34;;;;;;;8.85;7.95;;;17.20;99.90;;;;;;5033900;28;20154;-83
2023/09/23 09:07:00;;;;;;;11.63;8.55;;;17.00;99.90;;;;;;5033972;28;20382;-82
2023/09/23 09:09:26;;;;;;;7.90;7.03;;;16.90;99.90;;;;;;5033894;28;20192;-82
2023/09/23 09:11:58;;;;;;;9.13;8.13;;;17.30;99.90;;;;;;5034221;28;20087;-81
2023/09/23 09:14:25;;;;;;;8.60;7.70;;;17.60;99.90;;;;;;5034522;28;20065;-81
2023/09/23 09:16:50;;;;;;;7.68;6.88;;;18.10;99.90;;;;;;5033271;28;20155;-82
2023/09/23 09:19:16;;;;;;;8.02;7.22;;;18.60;99.90;;;;;;5032909;28;20079;-80
2023/09/23 09:21:42;;;;;;;8.20;7.07;;;19.30;99.90;;;;;;5032390;28;20107;-81
2023/09/23 09:24:09;;;;;;;8.20;6.53;;;20.00;99.90;;;;;;5033467;28;20447;-82
2023/09/23 09:26:41;;;;;;;8.23;7.15;;;20.70;99.90;;;;;;5033874;28;20106;-82
2023/09/23 09:29:06;;;;;;;7.67;6.83;;;21.00;99.90;;;;;;5033525;28;20052;-83
2023/09/23 09:31:38;;;;;;;8.60;5.95;;;20.60;99.90;;;;;;5032093;28;20295;-79
2023/09/23 09:34:06;;;;;;;7.63;6.90;;;20.00;99.90;;;;;;5048900;28;20045;-83
2023/09/23 09:36:36;;;;;;;8.35;6.20;;;19.60;99.90;;;;;;5033371;28;20049;-83
2023/09/23 09:39:04;;;;;;;8.23;6.63;;;19.10;99.90;;;;;;5033194;28;20049;-84
2023/09/23 09:41:54;;;;;;;8.07;6.57;;;18.60;99.90;;;;;;5032991;28;20149;-82
2023/09/23 09:44:22;;;;;;;7.88;7.07;;;18.20;99.90;;;;;;5031269;28;20063;-80
2023/09/23 09:46:51;;;;;;;8.32;6.88;;;17.70;99.90;;;;;;5033387;28;20049;-82
2023/09/23 09:49:17;;;;;;;6.30;5.70;;;17.50;99.90;;;;;;5032415;28;20091;-81
2023/09/23 09:51:48;;;;;;;7.75;5.72;;;17.40;99.90;;;;;;5033397;28;20053;-82
2023/09/23 09:54:19;;;;;;;10.32;5.70;;;17.70;99.90;;;;;;5032793;28;20053;-81
2023/09/23 09:56:48;;;;;;;8.38;6.18;;;18.40;99.90;;;;;;5033358;28;20051;-83
2023/09/23 09:59:26;;;;;;;7.38;6.30;;;18.90;99.90;;;;;;5033101;28;20049;-78
2023/09/23 10:01:54;;;;;;;7.18;4.97;;;19.10;99.90;;;;;;5033328;28;20045;-81
2023/09/23 10:04:20;;;;;;;4.93;4.43;;;19.00;99.90;;;;;;5032867;28;20046;-82
2023/09/23 10:06:54;;;;;;;5.32;4.57;;;19.40;99.90;;;;;;5033202;28;20057;-81
2023/09/23 10:09:27;;;;;;;6.03;3.97;;;20.00;99.90;;;;;;5033265;28;20517;-80
2023/09/23 10:11:56;;;;;;;4.88;4.15;;;20.40;99.90;;;;;;5033254;28;20045;-81
2023/09/23 10:14:26;;;;;;;4.80;3.63;;;20.90;99.90;;;;;;5032850;28;20037;-82
2023/09/23 10:17:04;;;;;;;5.57;3.28;;;21.30;99.90;;;;;;5032888;28;20099;-82
2023/09/23 10:19:31;;;;;;;6.53;3.40;;;21.20;99.90;;;;;;5032097;28;20476;-81
2023/09/23 10:22:20;;;;;;;4.70;3.92;;;20.60;99.90;;;;;;5032931;28;20080;-82
2023/09/23 10:25:11;;;;;;;3.38;2.80;;;21.30;99.90;;;;;;5033021;28;20068;-84
2023/09/23 10:27:39;;;;;;;6.55;2.97;;;22.40;99.90;;;;;;5033047;28;20096;-82
2023/09/23 10:30:06;;;;;;;3.28;2.90;;;23.80;99.90;;;;;;5032719;28;20049;-84
2023/09/23 10:32:32;;;;;;;3.88;2.80;;;24.40;99.90;;;;;;5032939;28;20060;-83
2023/09/23 10:34:59;;;;;;;3.22;2.60;;;24.70;99.90;;;;;;5033006;28;20056;-82
2023/09/23 10:37:29;;;;;;;4.22;2.83;;;24.50;99.90;;;;;;5032625;28;20050;-82
2023/09/23 10:39:59;;;;;;;3.25;2.63;;;24.50;99.90;;;;;;5031361;28;20053;-83
2023/09/23 10:42:24;;;;;;;4.32;2.75;;;23.60;99.90;;;;;;5033134;28;20049;-82
2023/09/23 10:44:50;;;;;;;4.32;3.17;;;22.90;99.90;;;;;;5032987;28;20517;-79
2023/09/23 10:47:16;;;;;;;3.15;2.58;;;22.00;99.90;;;;;;5031614;28;20041;-83
2023/09/23 10:49:42;;;;;;;3.78;2.47;;;21.30;99.90;;;;;;5032583;28;20532;-79
2023/09/23 10:52:10;;;;;;;3.67;3.20;;;20.70;99.90;;;;;;5032685;28;20049;-81
2023/09/23 10:54:36;;;;;;;4.82;3.35;;;20.20;99.90;;;;;;5034375;28;20085;-82
2023/09/23 10:57:02;;;;;;;3.58;3.03;;;19.80;99.90;;;;;;5035840;28;20085;-81
2023/09/23 10:59:28;;;;;;;5.35;3.70;;;19.30;99.90;;;;;;5035079;28;20551;-83
2023/09/23 11:01:57;;;;;;;3.63;3.33;;;19.10;99.90;;;;;;5035965;28;20474;-79
2023/09/23 11:04:23;;;;;;;4.28;3.25;;;18.80;99.90;;;;;;5019076;28;20442;-82
2023/09/23 11:06:49;;;;;;;4.20;3.28;;;18.60;99.90;;;;;;5035356;28;20045;-81
2023/09/23 11:09:15;;;;;;;4.32;3.13;;;18.50;99.90;;;;;;5036812;28;20409;-81
2023/09/23 11:11:41;;;;;;;4.15;2.88;;;18.60;99.90;;;;;;5034783;28;20497;-81
2023/09/23 11:14:13;;;;;;;5.50;3.13;;;18.60;99.90;;;;;;5036265;28;20041;-80
2023/09/23 11:16:42;;;;;;;3.92;2.67;;;18.80;99.90;;;;;;5018968;28;20057;-81
2023/09/23 11:19:08;;;;;;;2.85;2.63;;;18.80;99.90;;;;;;5035673;28;20355;-81
2023/09/23 11:21:44;;;;;;;4.88;2.78;;;18.70;99.90;;;;;;5036407;28;20110;-82
2023/09/23 11:24:10;;;;;;;4.05;2.85;;;18.60;99.90;;;;;;5036585;28;20049;-81
2023/09/23 11:26:39;;;;;;;3.38;2.40;;;18.60;99.90;;;;;;5036372;28;20513;-82
2023/09/23 11:29:06;;;;;;;6.35;2.78;;;18.60;99.90;;;;;;5036048;28;20132;-81
2023/09/23 11:31:32;;;;;;;4.68;3.15;;;18.30;99.90;;;;;;5036024;28;20060;-81
2023/09/23 11:33:57;;;;;;;3.47;3.10;;;18.10;99.90;;;;;;5036037;28;20041;-80
2023/09/23 11:36:23;;;;;;;3.55;2.83;;;18.00;99.90;;;;;;5036469;28;20128;-80
2023/09/23 11:38:49;;;;;;;5.78;3.42;;;18.10;99.90;;;;;;5038702;28;20053;-80
2023/09/23 11:41:16;;;;;;;3.33;3.03;;;18.20;99.90;;;;;;5040159;28;20474;-79
2023/09/23 11:43:41;;;;;;;3.38;3.05;;;18.20;99.90;;;;;;5036815;28;20397;-78
2023/09/23 11:46:07;;;;;;;7.30;3.22;;;18.30;99.90;;;;;;5036023;28;20057;-79
2023/09/23 11:48:35;;;;;;;4.40;2.25;;;18.30;99.90;;;;;;5035229;28;20136;-79
2023/09/23 11:51:01;;;;;;;3.35;2.70;;;18.40;99.90;;;;;;5035321;28;20099;-79
2023/09/23 11:53:27;;;;;;;3.53;2.47;;;18.40;99.90;;;;;;5034198;28;20046;-82
2023/09/23 11:55:53;;;;;;;3.70;2.78;;;18.30;99.90;;;;;;5035331;28;20110;-79
2023/09/23 11:58:22;;;;;;;3.25;2.10;;;18.30;99.90;;;;;;5034049;28;20092;-81
2023/09/23 12:00:48;;;;;;;2.90;2.10;;;18.30;99.90;;;;;;5034075;28;20052;-85
2023/09/23 12:03:14;;;;;;;2.97;2.33;;;18.40;99.90;;;;;;5034932;28;20084;-80
2023/09/23 12:05:41;;;;;;;2.97;2.40;;;18.40;99.90;;;;;;5034141;28;20111;-82
2023/09/23 12:08:09;;;;;;;3.35;2.33;;;18.40;99.90;;;;;;5035234;28;20117;-79
2023/09/23 12:10:36;;;;;;;3.05;2.17;;;18.20;99.90;;;;;;5034670;28;20394;-80
2023/09/23 12:13:06;;;;;;;2.97;2.47;;;18.10;99.90;;;;;;5035326;28;20134;-79
2023/09/23 12:15:34;;;;;;;4.82;2.70;;;18.10;99.90;;;;;;5034308;28;20093;-80
2023/09/23 12:17:59;;;;;;;2.47;2.20;;;18.00;99.90;;;;;;5034843;28;20046;-79
2023/09/23 12:20:26;;;;;;;2.78;2.45;;;17.80;99.90;;;;;;5034522;28;20452;-81
2023/09/23 12:22:57;;;;;;;3.08;2.80;;;17.70;99.90;;;;;;5034676;28;20128;-82
2023/09/23 12:25:23;;;;;;;4.97;2.88;;;17.60;99.90;;;;;;5035091;28;20092;-79
2023/09/23 12:27:48;;;;;;;4.70;3.42;;;17.50;99.90;;;;;;5034769;28;20431;-82
2023/09/23 12:30:17;;;;;;;4.65;3.22;;;17.50;99.90;;;;;;5034757;28;20470;-80
2023/09/23 12:32:43;;;;;;;4.53;2.97;;;17.40;99.90;;;;;;5034285;28;20057;-81
2023/09/23 12:35:09;;;;;;;2.60;2.40;;;17.30;99.90;;;;;;5034648;28;20120;-80
2023/09/23 12:37:35;;;;;;;3.00;2.55;;;17.20;99.90;;;;;;5034686;28;20056;-80
2023/09/23 12:40:03;;;;;;;3.67;2.28;;;17.10;99.90;;;;;;5034571;28;20375;-80
2023/09/23 12:42:30;;;;;;;2.30;2.10;;;17.00;99.90;;;;;;5034521;28;20049;-80